MSC Opera — H3FV — position and weather

sailwx.info

Track history (hours):
 
Tides and Currents Weather Stations Pressure Air Temp Water Temp Dewpoint Dewpoint Depression Visibility Wind Speed Wind Dir Waves Ship Positions

MSC Opera

Operator: Mediterranean Shipping Company

Last reported at 2019-Jul-22 02:49 UTC. Time now 2019-Jul-22 14:01 UTC.
Position N 42°56' E 015°34'.

Length 275 m; draft 6.8 m.

Type: Passenger vessel. MMSI: 357627000.

Date/timePositionNaut miles runAvg speedWind from/ knotsBaromVisibWave heightAir tempDewpointWater temp
2019-Jul-22 02:49N 42°56' E 015°34'720.1
2019-Jul-22 02:27N 42°59' E 015°25'920.3
2019-Jul-22 02:00N 43°04' E 015°14'1120.6
2019-Jul-22 01:30N 43°10' E 015°03'1320.3
2019-Jul-22 00:51N 43°18' E 014°48'2220.3
2019-Jul-21 23:47N 43°31' E 014°25'620.4
2019-Jul-21 23:30N 43°35' E 014°19'1020.5
2019-Jul-21 23:00N 43°41' E 014°08'1320.4
2019-Jul-21 22:22N 43°50' E 013°54'720.3
2019-Jul-21 22:00N 43°54' E 013°46'1020.3
2019-Jul-21 21:30N 44°00' E 013°35'1020.1
2019-Jul-21 21:00N 44°06' E 013°23'1020.1
2019-Jul-21 20:30N 44°13' E 013°13'1019.9
2019-Jul-21 20:00N 44°22' E 013°09'1019.9
2019-Jul-21 19:30N 44°32' E 013°05'1019.6
2019-Jul-21 19:00N 44°41' E 013°00'1019.6
2019-Jul-21 18:30N 44°50' E 012°55'1019.9
2019-Jul-21 18:01N 44°58' E 012°48'1019.8
2019-Jul-21 17:30N 45°07' E 012°41'918.9
2019-Jul-21 17:00N 45°13' E 012°30'816.2
2019-Jul-21 16:30N 45°19' E 012°23'4 8.7
2019-Jul-21 16:00N 45°21' E 012°17'3 6.4
2019-Jul-21 15:30N 45°24' E 012°16'3 6.2
2019-Jul-21 15:00N 45°27' E 012°16'1 1.5
2019-Jul-21 14:30N 45°27' E 012°15'0 0.0
2019-Jul-21 13:59N 45°27' E 012°15'0 0.0
2019-Jul-21 13:29N 45°27' E 012°15'0 0.0
2019-Jul-21 12:59N 45°27' E 012°15'0 0.0
2019-Jul-21 12:29N 45°27' E 012°15'0 0.0
2019-Jul-21 11:58N 45°27' E 012°15'0 0.0
2019-Jul-21 11:28N 45°27' E 012°15'0 0.0
2019-Jul-21 10:58N 45°27' E 012°15'0 0.0
2019-Jul-21 10:25N 45°27' E 012°15'0 0.0
2019-Jul-21 10:01N 45°27' E 012°15'0 0.0
2019-Jul-21 09:30N 45°27' E 012°15'0 0.0
2019-Jul-21 09:00N 45°27' E 012°15'0 0.0
2019-Jul-21 08:30N 45°27' E 012°15'0 0.0
2019-Jul-21 07:57N 45°27' E 012°15'0 0.0
2019-Jul-21 07:29N 45°27' E 012°15'0 0.0
2019-Jul-21 06:59N 45°27' E 012°15'0 0.0
2019-Jul-21 06:30N 45°27' E 012°15'0 0.5
2019-Jul-21 06:00N 45°27' E 012°16'3 5.4
2019-Jul-21 05:30N 45°25' E 012°16'3 6.9
2019-Jul-21 05:00N 45°21' E 012°16'4 7.5
2019-Jul-21 04:30N 45°20' E 012°21'4 8.0
2019-Jul-21 04:00N 45°19' E 012°26'510.2
2019-Jul-21 03:30N 45°16' E 012°32'714.8
2019-Jul-21 03:01N 45°12' E 012°41'917.2
2019-Jul-21 02:31N 45°09' E 012°52'1019.9
2019-Jul-21 02:01N 45°04' E 013°05'1019.9
2019-Jul-21 01:31N 44°58' E 013°16'1019.5
2019-Jul-21 01:01N 44°51' E 013°26'1019.7
2019-Jul-21 00:30N 44°43' E 013°33'1019.4
2019-Jul-21 00:01N 44°35' E 013°41'1019.7
2019-Jul-20 23:31N 44°27' E 013°49'1019.8
2019-Jul-20 23:00N 44°19' E 013°58'1020.2
2019-Jul-20 22:31N 44°11' E 014°06'1020.1
2019-Jul-20 22:00N 44°03' E 014°14'1020.3
2019-Jul-20 21:30N 43°55' E 014°23'1020.5
2019-Jul-20 21:01N 43°46' E 014°31'1020.5
2019-Jul-20 20:30N 43°38' E 014°40'1020.2
2019-Jul-20 20:01N 43°31' E 014°48'1020.3
2019-Jul-20 19:30N 43°23' E 014°57'1020.3
2019-Jul-20 19:00N 43°15' E 015°06'1020.3
2019-Jul-20 18:30N 43°07' E 015°15'1020.4
2019-Jul-20 18:01N 42°59' E 015°23'1020.3
2019-Jul-20 17:30N 42°51' E 015°32'1020.4
2019-Jul-20 17:00N 42°43' E 015°41'1020.4
2019-Jul-20 16:31N 42°36' E 015°51'1020.2
2019-Jul-20 16:01N 42°28' E 015°59'1620.1
2019-Jul-20 15:12N 42°16' E 016°14'420.1
2019-Jul-20 14:59N 42°13' E 016°18'919.6
2019-Jul-20 14:30N 42°05' E 016°25'5319.8
2019-Jul-20 11:48N 41°15' E 016°49'516.3
2019-Jul-20 11:30N 41°10' E 016°51'2 1.3
2019-Jul-20 10:10N 41°08' E 016°52'  
2019-Jul-18 00:41N 37°06' E 024°57'317.0
2019-Jul-18 00:31N 37°08' E 024°58'816.7
2019-Jul-18 00:01N 37°16' E 025°03'816.3
2019-Jul-17 23:31N 37°23' E 025°08'714.6
2019-Jul-17 23:00N 37°28' E 025°15'4 6.8
2019-Jul-17 22:28N 37°28' E 025°19'0 0.0
2019-Jul-17 21:58N 37°28' E 025°19'0 0.0
2019-Jul-17 21:28N 37°28' E 025°19'0 0.0
2019-Jul-17 20:51N 37°28' E 025°19'0 0.0
2019-Jul-17 20:27N 37°28' E 025°19'0 0.0
2019-Jul-17 20:00N 37°28' E 025°19'0 0.0
2019-Jul-17 19:30N 37°28' E 025°19'0 0.0
2019-Jul-17 19:00N 37°28' E 025°19'0 0.0
2019-Jul-17 18:29N 37°28' E 025°19'0 0.0
2019-Jul-17 17:59N 37°28' E 025°19'0 0.0
2019-Jul-17 17:29N 37°28' E 025°19'0 0.0
2019-Jul-17 16:59N 37°28' E 025°19'0 0.0
2019-Jul-17 16:26N 37°28' E 025°19'0 0.0
2019-Jul-17 15:58N 37°28' E 025°19'0 0.0
2019-Jul-17 15:22N 37°28' E 025°19'0 0.0
2019-Jul-17 14:55N 37°28' E 025°19'0 0.0
2019-Jul-17 14:25N 37°28' E 025°19'0 0.0
2019-Jul-17 13:58N 37°28' E 025°19'0 0.0
2019-Jul-17 13:30N 37°28' E 025°19'0 0.0
2019-Jul-17 13:00N 37°28' E 025°19'0 0.0
2019-Jul-17 12:27N 37°28' E 025°19'0 0.0
2019-Jul-17 11:57N 37°28' E 025°19'0 0.0
2019-Jul-17 11:29N 37°28' E 025°19'0 0.0
2019-Jul-17 10:59N 37°28' E 025°19'0 0.0
2019-Jul-17 10:26N 37°28' E 025°19'0 0.0
2019-Jul-17 09:59N 37°28' E 025°19'0 0.0
2019-Jul-17 09:29N 37°28' E 025°19'0 0.0
2019-Jul-17 08:58N 37°28' E 025°19'0 0.0
2019-Jul-17 08:25N 37°28' E 025°19'0 0.0
2019-Jul-17 07:55N 37°28' E 025°19'0 0.0
2019-Jul-17 07:28N 37°28' E 025°19'0 0.0
2019-Jul-17 06:57N 37°28' E 025°19'0 0.0
2019-Jul-17 06:30N 37°28' E 025°19'0 0.0
2019-Jul-17 05:57N 37°28' E 025°19'0 0.0
2019-Jul-17 05:30N 37°28' E 025°19'0 0.8
2019-Jul-17 05:00N 37°28' E 025°19'510.6
2019-Jul-17 04:30N 37°28' E 025°12'815.7
2019-Jul-17 04:01N 37°21' E 025°07'815.9
2019-Jul-17 03:31N 37°16' E 024°59'816.4
2019-Jul-17 03:00N 37°12' E 024°50'66613.1
2019-Jul-15 00:17N 44°26' E 013°43'620.5
2019-Jul-15 00:00N 44°31' E 013°39'1020.1
2019-Jul-14 23:31N 44°39' E 013°32'1020.4
2019-Jul-14 23:01N 44°48' E 013°24'1020.5
2019-Jul-14 22:30N 44°56' E 013°16'1020.5
2019-Jul-14 22:00N 45°03' E 013°05'1020.3
2019-Jul-14 21:30N 45°09' E 012°54'1020.3
2019-Jul-14 21:01N 45°16' E 012°43'1019.7
2019-Jul-14 20:31N 45°22' E 012°32'611.9
2019-Jul-14 20:01N 45°26' E 012°25'3 5.1
2019-Jul-14 19:30N 45°26' E 012°21'2 4.3
2019-Jul-14 19:01N 45°26' E 012°18'0 0.5
2019-Jul-14 18:30N 45°26' E 012°18'0 0.0
2019-Jul-14 18:00N 45°26' E 012°18'0 0.0
2019-Jul-14 17:26N 45°26' E 012°18'0 0.0
2019-Jul-14 16:55N 45°26' E 012°18'0 0.0
2019-Jul-14 16:25N 45°26' E 012°18'0 0.0
2019-Jul-14 15:58N 45°26' E 012°18'0 0.0
2019-Jul-14 15:28N 45°26' E 012°18'0 0.0
2019-Jul-14 14:52N 45°26' E 012°18'0 0.0
2019-Jul-14 14:26N 45°26' E 012°18'0 0.0
2019-Jul-14 13:55N 45°26' E 012°18'0 0.0
2019-Jul-14 13:25N 45°26' E 012°18'0 0.0
2019-Jul-14 12:55N 45°26' E 012°18'0 0.0
2019-Jul-14 12:25N 45°26' E 012°18'0 0.0
2019-Jul-14 12:00N 45°26' E 012°18'0 0.0
2019-Jul-14 11:30N 45°26' E 012°18'0 0.0
2019-Jul-14 11:00N 45°26' E 012°18'0 0.0
2019-Jul-14 10:30N 45°26' E 012°18'0 0.0
2019-Jul-14 09:51N 45°26' E 012°18'0 0.0
2019-Jul-14 09:29N 45°26' E 012°18'0 0.0
2019-Jul-14 08:59N 45°26' E 012°18'0 0.0
2019-Jul-14 08:29N 45°26' E 012°18'0 0.0
2019-Jul-14 08:00N 45°26' E 012°18'1 1.7
2019-Jul-14 07:30N 45°26' E 012°19'2 4.3
2019-Jul-14 07:00N 45°25' E 012°22'3 5.9
2019-Jul-14 06:30N 45°25' E 012°27'5 9.4
2019-Jul-14 06:00N 45°22' E 012°32'713.4
2019-Jul-14 05:30N 45°19' E 012°40'815.8
2019-Jul-14 05:00N 45°14' E 012°49'816.1
2019-Jul-14 04:30N 45°08' E 012°57'816.2
2019-Jul-14 04:00N 45°04' E 013°07'816.6
2019-Jul-14 03:30N 44°59' E 013°16'917.8
2019-Jul-14 03:00N 44°53' E 013°26'918.2
2019-Jul-14 02:30N 44°45' E 013°33'918.1
2019-Jul-14 02:00N 44°38' E 013°40'917.9
2019-Jul-14 01:30N 44°30' E 013°46'918.1
2019-Jul-14 01:00N 44°23' E 013°53'917.9
2019-Jul-14 00:30N 44°15' E 014°00'  
Track history (hours):
 
Tides and Currents Weather Stations Pressure Air Temp Water Temp Dewpoint Dewpoint Depression Visibility Wind Speed Wind Dir Waves Ship Positions

MSC Opera

Operator: Mediterranean Shipping Company

Last reported at 2019-Jul-22 02:49 UTC. Time now 2019-Jul-22 14:01 UTC.
Position N 42°56' E 015°34'.

Length 275 m; draft 6.8 m.

Type: Passenger vessel. MMSI: 357627000.

Date/timePositionNaut miles runAvg speedWind from/ knotsBaromVisibWave heightAir tempDewpointWater temp
2019-Jul-22 02:49N 42°56' E 015°34'720.1
2019-Jul-22 02:27N 42°59' E 015°25'920.3
2019-Jul-22 02:00N 43°04' E 015°14'1120.6
2019-Jul-22 01:30N 43°10' E 015°03'1320.3
2019-Jul-22 00:51N 43°18' E 014°48'2220.3
2019-Jul-21 23:47N 43°31' E 014°25'620.4
2019-Jul-21 23:30N 43°35' E 014°19'1020.5
2019-Jul-21 23:00N 43°41' E 014°08'1320.4
2019-Jul-21 22:22N 43°50' E 013°54'720.3
2019-Jul-21 22:00N 43°54' E 013°46'1020.3
2019-Jul-21 21:30N 44°00' E 013°35'1020.1
2019-Jul-21 21:00N 44°06' E 013°23'1020.1
2019-Jul-21 20:30N 44°13' E 013°13'1019.9
2019-Jul-21 20:00N 44°22' E 013°09'1019.9
2019-Jul-21 19:30N 44°32' E 013°05'1019.6
2019-Jul-21 19:00N 44°41' E 013°00'1019.6
2019-Jul-21 18:30N 44°50' E 012°55'1019.9
2019-Jul-21 18:01N 44°58' E 012°48'1019.8
2019-Jul-21 17:30N 45°07' E 012°41'918.9
2019-Jul-21 17:00N 45°13' E 012°30'816.2
2019-Jul-21 16:30N 45°19' E 012°23'4 8.7
2019-Jul-21 16:00N 45°21' E 012°17'3 6.4
2019-Jul-21 15:30N 45°24' E 012°16'3 6.2
2019-Jul-21 15:00N 45°27' E 012°16'1 1.5
2019-Jul-21 14:30N 45°27' E 012°15'0 0.0
2019-Jul-21 13:59N 45°27' E 012°15'0 0.0
2019-Jul-21 13:29N 45°27' E 012°15'0 0.0
2019-Jul-21 12:59N 45°27' E 012°15'0 0.0
2019-Jul-21 12:29N 45°27' E 012°15'0 0.0
2019-Jul-21 11:58N 45°27' E 012°15'0 0.0
2019-Jul-21 11:28N 45°27' E 012°15'0 0.0
2019-Jul-21 10:58N 45°27' E 012°15'0 0.0
2019-Jul-21 10:25N 45°27' E 012°15'0 0.0
2019-Jul-21 10:01N 45°27' E 012°15'0 0.0
2019-Jul-21 09:30N 45°27' E 012°15'0 0.0
2019-Jul-21 09:00N 45°27' E 012°15'0 0.0
2019-Jul-21 08:30N 45°27' E 012°15'0 0.0
2019-Jul-21 07:57N 45°27' E 012°15'0 0.0
2019-Jul-21 07:29N 45°27' E 012°15'0 0.0
2019-Jul-21 06:59N 45°27' E 012°15'0 0.0
2019-Jul-21 06:30N 45°27' E 012°15'0 0.5
2019-Jul-21 06:00N 45°27' E 012°16'3 5.4
2019-Jul-21 05:30N 45°25' E 012°16'3 6.9
2019-Jul-21 05:00N 45°21' E 012°16'4 7.5
2019-Jul-21 04:30N 45°20' E 012°21'4 8.0
2019-Jul-21 04:00N 45°19' E 012°26'510.2
2019-Jul-21 03:30N 45°16' E 012°32'714.8
2019-Jul-21 03:01N 45°12' E 012°41'917.2
2019-Jul-21 02:31N 45°09' E 012°52'1019.9
2019-Jul-21 02:01N 45°04' E 013°05'1019.9
2019-Jul-21 01:31N 44°58' E 013°16'1019.5
2019-Jul-21 01:01N 44°51' E 013°26'1019.7
2019-Jul-21 00:30N 44°43' E 013°33'1019.4
2019-Jul-21 00:01N 44°35' E 013°41'1019.7
2019-Jul-20 23:31N 44°27' E 013°49'1019.8
2019-Jul-20 23:00N 44°19' E 013°58'1020.2
2019-Jul-20 22:31N 44°11' E 014°06'1020.1
2019-Jul-20 22:00N 44°03' E 014°14'1020.3
2019-Jul-20 21:30N 43°55' E 014°23'1020.5
2019-Jul-20 21:01N 43°46' E 014°31'1020.5
2019-Jul-20 20:30N 43°38' E 014°40'1020.2
2019-Jul-20 20:01N 43°31' E 014°48'1020.3
2019-Jul-20 19:30N 43°23' E 014°57'1020.3
2019-Jul-20 19:00N 43°15' E 015°06'1020.3
2019-Jul-20 18:30N 43°07' E 015°15'1020.4
2019-Jul-20 18:01N 42°59' E 015°23'1020.3
2019-Jul-20 17:30N 42°51' E 015°32'1020.4
2019-Jul-20 17:00N 42°43' E 015°41'1020.4
2019-Jul-20 16:31N 42°36' E 015°51'1020.2
2019-Jul-20 16:01N 42°28' E 015°59'1620.1
2019-Jul-20 15:12N 42°16' E 016°14'420.1
2019-Jul-20 14:59N 42°13' E 016°18'919.6
2019-Jul-20 14:30N 42°05' E 016°25'5319.8
2019-Jul-20 11:48N 41°15' E 016°49'516.3
2019-Jul-20 11:30N 41°10' E 016°51'2 1.3
2019-Jul-20 10:10N 41°08' E 016°52'  
2019-Jul-18 00:41N 37°06' E 024°57'317.0
2019-Jul-18 00:31N 37°08' E 024°58'816.7
2019-Jul-18 00:01N 37°16' E 025°03'816.3
2019-Jul-17 23:31N 37°23' E 025°08'714.6
2019-Jul-17 23:00N 37°28' E 025°15'4 6.8
2019-Jul-17 22:28N 37°28' E 025°19'0 0.0
2019-Jul-17 21:58N 37°28' E 025°19'0 0.0
2019-Jul-17 21:28N 37°28' E 025°19'0 0.0
2019-Jul-17 20:51N 37°28' E 025°19'0 0.0
2019-Jul-17 20:27N 37°28' E 025°19'0 0.0
2019-Jul-17 20:00N 37°28' E 025°19'0 0.0
2019-Jul-17 19:30N 37°28' E 025°19'0 0.0
2019-Jul-17 19:00N 37°28' E 025°19'0 0.0
2019-Jul-17 18:29N 37°28' E 025°19'0 0.0
2019-Jul-17 17:59N 37°28' E 025°19'0 0.0
2019-Jul-17 17:29N 37°28' E 025°19'0 0.0
2019-Jul-17 16:59N 37°28' E 025°19'0 0.0
2019-Jul-17 16:26N 37°28' E 025°19'0 0.0
2019-Jul-17 15:58N 37°28' E 025°19'0 0.0
2019-Jul-17 15:22N 37°28' E 025°19'0 0.0
2019-Jul-17 14:55N 37°28' E 025°19'0 0.0
2019-Jul-17 14:25N 37°28' E 025°19'0 0.0
2019-Jul-17 13:58N 37°28' E 025°19'0 0.0
2019-Jul-17 13:30N 37°28' E 025°19'0 0.0
2019-Jul-17 13:00N 37°28' E 025°19'0 0.0
2019-Jul-17 12:27N 37°28' E 025°19'0 0.0
2019-Jul-17 11:57N 37°28' E 025°19'0 0.0
2019-Jul-17 11:29N 37°28' E 025°19'0 0.0
2019-Jul-17 10:59N 37°28' E 025°19'0 0.0
2019-Jul-17 10:26N 37°28' E 025°19'0 0.0
2019-Jul-17 09:59N 37°28' E 025°19'0 0.0
2019-Jul-17 09:29N 37°28' E 025°19'0 0.0
2019-Jul-17 08:58N 37°28' E 025°19'0 0.0
2019-Jul-17 08:25N 37°28' E 025°19'0 0.0
2019-Jul-17 07:55N 37°28' E 025°19'0 0.0
2019-Jul-17 07:28N 37°28' E 025°19'0 0.0
2019-Jul-17 06:57N 37°28' E 025°19'0 0.0
2019-Jul-17 06:30N 37°28' E 025°19'0 0.0
2019-Jul-17 05:57N 37°28' E 025°19'0 0.0
2019-Jul-17 05:30N 37°28' E 025°19'0 0.8
2019-Jul-17 05:00N 37°28' E 025°19'510.6
2019-Jul-17 04:30N 37°28' E 025°12'815.7
2019-Jul-17 04:01N 37°21' E 025°07'815.9
2019-Jul-17 03:31N 37°16' E 024°59'816.4
2019-Jul-17 03:00N 37°12' E 024°50'66613.1
2019-Jul-15 00:17N 44°26' E 013°43'620.5
2019-Jul-15 00:00N 44°31' E 013°39'1020.1
2019-Jul-14 23:31N 44°39' E 013°32'1020.4
2019-Jul-14 23:01N 44°48' E 013°24'1020.5
2019-Jul-14 22:30N 44°56' E 013°16'1020.5
2019-Jul-14 22:00N 45°03' E 013°05'1020.3
2019-Jul-14 21:30N 45°09' E 012°54'1020.3
2019-Jul-14 21:01N 45°16' E 012°43'1019.7
2019-Jul-14 20:31N 45°22' E 012°32'611.9
2019-Jul-14 20:01N 45°26' E 012°25'3 5.1
2019-Jul-14 19:30N 45°26' E 012°21'2 4.3
2019-Jul-14 19:01N 45°26' E 012°18'0 0.5
2019-Jul-14 18:30N 45°26' E 012°18'0 0.0
2019-Jul-14 18:00N 45°26' E 012°18'0 0.0
2019-Jul-14 17:26N 45°26' E 012°18'0 0.0
2019-Jul-14 16:55N 45°26' E 012°18'0 0.0
2019-Jul-14 16:25N 45°26' E 012°18'0 0.0
2019-Jul-14 15:58N 45°26' E 012°18'0 0.0
2019-Jul-14 15:28N 45°26' E 012°18'0 0.0
2019-Jul-14 14:52N 45°26' E 012°18'0 0.0
2019-Jul-14 14:26N 45°26' E 012°18'0 0.0
2019-Jul-14 13:55N 45°26' E 012°18'0 0.0
2019-Jul-14 13:25N 45°26' E 012°18'0 0.0
2019-Jul-14 12:55N 45°26' E 012°18'0 0.0
2019-Jul-14 12:25N 45°26' E 012°18'0 0.0
2019-Jul-14 12:00N 45°26' E 012°18'0 0.0
2019-Jul-14 11:30N 45°26' E 012°18'0 0.0
2019-Jul-14 11:00N 45°26' E 012°18'0 0.0
2019-Jul-14 10:30N 45°26' E 012°18'0 0.0
2019-Jul-14 09:51N 45°26' E 012°18'0 0.0
2019-Jul-14 09:29N 45°26' E 012°18'0 0.0
2019-Jul-14 08:59N 45°26' E 012°18'0 0.0
2019-Jul-14 08:29N 45°26' E 012°18'0 0.0
2019-Jul-14 08:00N 45°26' E 012°18'1 1.7
2019-Jul-14 07:30N 45°26' E 012°19'2 4.3
2019-Jul-14 07:00N 45°25' E 012°22'3 5.9
2019-Jul-14 06:30N 45°25' E 012°27'5 9.4
2019-Jul-14 06:00N 45°22' E 012°32'713.4
2019-Jul-14 05:30N 45°19' E 012°40'815.8
2019-Jul-14 05:00N 45°14' E 012°49'816.1
2019-Jul-14 04:30N 45°08' E 012°57'816.2
2019-Jul-14 04:00N 45°04' E 013°07'816.6
2019-Jul-14 03:30N 44°59' E 013°16'917.8
2019-Jul-14 03:00N 44°53' E 013°26'918.2
2019-Jul-14 02:30N 44°45' E 013°33'918.1
2019-Jul-14 02:00N 44°38' E 013°40'917.9
2019-Jul-14 01:30N 44°30' E 013°46'918.1
2019-Jul-14 01:00N 44°23' E 013°53'917.9
2019-Jul-14 00:30N 44°15' E 014°00'  

Dump ship's entire track history